createdAt,value
2017-04-29T00:00:21.507Z,0
2017-04-29T00:01:30.813Z,0
2017-04-29T00:02:40.992Z,0
2017-04-29T00:03:50.924Z,0
2017-04-29T00:05:01.169Z,0
2017-04-29T00:06:11.082Z,0
2017-04-29T00:07:20.381Z,0
2017-04-29T00:08:30.144Z,0
2017-04-29T00:09:40.439Z,0
2017-04-29T00:10:50.656Z,0
2017-04-29T00:12:00.263Z,0
2017-04-29T00:13:09.867Z,0
2017-04-29T00:14:19.642Z,0
2017-04-29T00:15:28.648Z,0
2017-04-29T00:16:38.298Z,0
2017-04-29T00:17:48.239Z,0
2017-04-29T00:18:58.147Z,0
2017-04-29T00:20:08.006Z,0
2017-04-29T00:21:17.298Z,0
2017-04-29T00:22:27.209Z,0
2017-04-29T00:23:36.819Z,0
2017-04-29T00:24:47.102Z,0
2017-04-29T00:25:57.315Z,0
2017-04-29T00:27:06.917Z,0
2017-04-29T00:28:16.522Z,0
2017-04-29T00:29:26.449Z,0
2017-04-29T00:30:36.366Z,0
2017-04-29T00:31:46.387Z,0
2017-04-29T00:32:56.312Z,0
2017-04-29T00:34:06.227Z,0
2017-04-29T00:35:16.137Z,0
2017-04-29T00:36:26.046Z,0
2017-04-29T00:37:36.111Z,0
2017-04-29T00:38:46.339Z,0
2017-04-29T00:39:56.251Z,0
2017-04-29T00:41:05.847Z,0
2017-04-29T00:42:15.440Z,0
2017-04-29T00:43:25.200Z,0
2017-04-29T00:44:35.421Z,0
2017-04-29T00:45:45.021Z,0
2017-04-29T00:46:55.255Z,0
2017-04-29T00:48:05.178Z,0
2017-04-29T00:49:15.438Z,0
2017-04-29T00:50:25.657Z,0
2017-04-29T00:51:35.565Z,0
2017-04-29T00:52:45.489Z,0
2017-04-29T00:53:55.407Z,0
2017-04-29T00:55:05.577Z,0
2017-04-29T00:56:15.182Z,0
2017-04-29T00:57:25.088Z,0
2017-04-29T00:58:34.694Z,0
2017-04-29T00:59:44.599Z,0
2017-04-29T01:00:54.501Z,0
2017-04-29T01:02:04.117Z,0
2017-04-29T01:03:14.041Z,0
2017-04-29T01:04:24.267Z,0
2017-04-29T01:05:34.490Z,0
2017-04-29T01:06:45.068Z,0
2017-04-29T01:07:54.704Z,0
2017-04-29T01:09:04.637Z,0
2017-04-29T01:10:14.550Z,0
2017-04-29T01:11:24.446Z,0
2017-04-29T01:12:34.298Z,0
2017-04-29T01:13:44.525Z,0
2017-04-29T01:14:54.747Z,0
2017-04-29T01:16:04.670Z,0
2017-04-29T01:17:14.876Z,0
2017-04-29T01:18:25.056Z,0
2017-04-29T01:19:34.966Z,0
2017-04-29T01:20:44.567Z,0
2017-04-29T01:21:54.484Z,0
2017-04-29T01:23:03.792Z,0
2017-04-29T01:24:13.546Z,0
2017-04-29T01:25:23.143Z,0
2017-04-29T01:26:33.370Z,0
2017-04-29T01:27:43.289Z,0
2017-04-29T01:28:52.591Z,0
2017-04-29T01:30:02.756Z,0
2017-04-29T01:31:12.975Z,0
2017-04-29T01:32:22.890Z,0
2017-04-29T01:33:33.118Z,0
2017-04-29T01:34:43.716Z,0
2017-04-29T01:35:53.572Z,0
2017-04-29T01:37:03.492Z,0
2017-04-29T01:38:13.394Z,0
2017-04-29T01:39:23.003Z,0
2017-04-29T01:40:32.917Z,0
2017-04-29T01:41:43.128Z,0
2017-04-29T01:42:52.745Z,0
2017-04-29T01:44:02.664Z,0
2017-04-29T01:45:12.273Z,0
2017-04-29T01:46:22.207Z,0
2017-04-29T01:47:31.605Z,0
2017-04-29T01:48:41.836Z,0
2017-04-29T01:49:51.751Z,0
2017-04-29T01:51:01.657Z,0
2017-04-29T01:52:11.871Z,0
2017-04-29T01:53:21.263Z,0
2017-04-29T01:54:30.871Z,0
2017-04-29T01:55:40.794Z,0
2017-04-29T01:56:50.710Z,0
2017-04-29T01:58:00.635Z,0
2017-04-29T01:59:10.801Z,0
2017-04-29T02:00:20.703Z,0
2017-04-29T02:01:30.306Z,0
2017-04-29T02:02:40.220Z,0
2017-04-29T02:03:50.448Z,0
2017-04-29T02:05:00.104Z,0
2017-04-29T02:06:10.326Z,0
2017-04-29T02:07:20.231Z,0
2017-04-29T02:08:29.528Z,0
2017-04-29T02:09:39.433Z,0
2017-04-29T02:10:49.764Z,0
2017-04-29T02:11:59.375Z,0
2017-04-29T02:13:09.289Z,0
2017-04-29T02:14:18.907Z,0
2017-04-29T02:15:28.217Z,0
2017-04-29T02:16:38.740Z,0
2017-04-29T02:17:48.669Z,0
2017-04-29T02:18:58.292Z,0
2017-04-29T02:20:08.214Z,0
2017-04-29T02:21:17.816Z,0
2017-04-29T02:22:28.031Z,0
2017-04-29T02:23:37.958Z,0
2017-04-29T02:24:47.868Z,0
2017-04-29T02:25:57.780Z,0
2017-04-29T02:27:07.700Z,0
2017-04-29T02:28:17.865Z,0
2017-04-29T02:29:27.476Z,0
2017-04-29T02:30:37.075Z,0
2017-04-29T02:31:47.300Z,0
2017-04-29T02:32:57.201Z,0
2017-04-29T02:34:07.529Z,0
2017-04-29T02:35:17.438Z,0
2017-04-29T02:36:27.341Z,0
2017-04-29T02:37:37.243Z,0
2017-04-29T02:38:47.161Z,0
2017-04-29T02:39:57.073Z,0
2017-04-29T02:41:06.991Z,0
2017-04-29T02:42:17.212Z,0
2017-04-29T02:43:26.825Z,0
2017-04-29T02:44:36.745Z,0
2017-04-29T02:45:47.279Z,0
2017-04-29T02:46:57.230Z,0
2017-04-29T02:48:07.448Z,0
2017-04-29T02:49:17.360Z,0
2017-04-29T02:50:27.281Z,0
2017-04-29T02:51:37.807Z,0
2017-04-29T02:52:48.047Z,0
2017-04-29T02:53:58.315Z,0
2017-04-29T02:55:08.222Z,0
2017-04-29T02:56:18.137Z,0
2017-04-29T02:57:27.892Z,0
2017-04-29T02:58:38.118Z,0
2017-04-29T02:59:47.726Z,0
2017-04-29T03:00:57.324Z,0
2017-04-29T03:02:06.926Z,0
2017-04-29T03:03:17.086Z,0
2017-04-29T03:04:27.038Z,0
2017-04-29T03:05:36.029Z,0
2017-04-29T03:06:45.333Z,0
2017-04-29T03:07:55.284Z,0
2017-04-29T03:09:05.553Z,0
2017-04-29T03:10:15.772Z,0
2017-04-29T03:11:25.381Z,0
2017-04-29T03:12:35.304Z,0
2017-04-29T03:13:45.522Z,0
2017-04-29T03:14:55.423Z,0
2017-04-29T03:16:05.656Z,0
2017-04-29T03:17:15.270Z,0
2017-04-29T03:18:24.904Z,0
2017-04-29T03:19:34.512Z,0
2017-04-29T03:20:45.779Z,0
2017-04-29T03:21:55.390Z,0
2017-04-29T03:23:05.302Z,0
2017-04-29T03:24:15.229Z,0
2017-04-29T03:25:25.446Z,0
2017-04-29T03:26:36.101Z,0
2017-04-29T03:27:46.023Z,0
2017-04-29T03:28:55.935Z,0
2017-04-29T03:30:05.859Z,0
2017-04-29T03:31:15.463Z,0
2017-04-29T03:32:25.695Z,0
2017-04-29T03:33:35.000Z,0
2017-04-29T03:34:44.914Z,0
2017-04-29T03:35:54.838Z,0
2017-04-29T03:37:05.058Z,0
2017-04-29T03:38:15.572Z,0
2017-04-29T03:39:25.190Z,0
2017-04-29T03:40:34.799Z,0
2017-04-29T03:41:44.714Z,0
2017-04-29T03:42:54.959Z,0
2017-04-29T03:44:05.339Z,0
2017-04-29T03:45:15.569Z,0
2017-04-29T03:46:25.480Z,4
2017-04-29T03:47:34.783Z,4
2017-04-29T03:48:44.719Z,4
2017-04-29T03:49:55.502Z,0
2017-04-29T03:51:04.872Z,4
2017-04-29T03:52:14.783Z,4
2017-04-29T03:53:24.688Z,4
2017-04-29T03:54:34.640Z,4
2017-04-29T03:55:44.814Z,8
2017-04-29T03:56:54.734Z,4
2017-04-29T03:58:04.367Z,8
2017-04-29T03:59:14.282Z,8
2017-04-29T04:00:24.204Z,12
2017-04-29T04:01:33.968Z,12
2017-04-29T04:02:43.574Z,12
2017-04-29T04:03:53.799Z,16
2017-04-29T04:05:03.413Z,16
2017-04-29T04:06:13.326Z,20
2017-04-29T04:07:23.487Z,20
2017-04-29T04:08:33.392Z,20
2017-04-29T04:09:43.615Z,24
2017-04-29T04:10:53.537Z,20
2017-04-29T04:12:03.157Z,24
2017-04-29T04:13:13.549Z,24
2017-04-29T04:14:23.781Z,24
2017-04-29T04:15:33.688Z,24
2017-04-29T04:16:43.909Z,28
2017-04-29T04:17:54.126Z,28
2017-04-29T04:19:04.695Z,32
2017-04-29T04:20:14.316Z,36
2017-04-29T04:21:24.536Z,52
2017-04-29T04:22:34.457Z,64
2017-04-29T04:23:44.696Z,88
2017-04-29T04:24:54.609Z,108
2017-04-29T04:26:04.218Z,120
2017-04-29T04:27:14.450Z,112
2017-04-29T04:28:24.440Z,100
2017-04-29T04:29:34.353Z,96
2017-04-29T04:30:44.370Z,108
2017-04-29T04:31:54.584Z,128
2017-04-29T04:33:04.815Z,144
2017-04-29T04:34:14.741Z,156
2017-04-29T04:35:24.350Z,172
2017-04-29T04:36:35.007Z,188
2017-04-29T04:37:44.912Z,224
2017-04-29T04:38:54.839Z,244
2017-04-29T04:40:05.073Z,264
2017-04-29T04:41:14.975Z,296
2017-04-29T04:42:25.271Z,304
2017-04-29T04:43:35.191Z,336
2017-04-29T04:44:45.420Z,364
2017-04-29T04:45:55.658Z,388
2017-04-29T04:47:05.269Z,428
2017-04-29T04:48:14.573Z,472
2017-04-29T04:49:24.798Z,540
2017-04-29T04:50:35.022Z,548
2017-04-29T04:51:44.971Z,536
2017-04-29T04:52:55.204Z,536
2017-04-29T04:54:05.479Z,552
2017-04-29T04:55:15.088Z,620
2017-04-29T04:56:25.003Z,688
2017-04-29T04:57:34.927Z,684
2017-04-29T04:58:44.226Z,692
2017-04-29T04:59:54.397Z,652
2017-04-29T05:01:04.333Z,600
2017-04-29T05:02:14.571Z,628
2017-04-29T05:03:24.177Z,628
2017-04-29T05:04:34.093Z,628
2017-04-29T05:05:43.708Z,624
2017-04-29T05:06:53.630Z,628
2017-04-29T05:08:03.577Z,688
2017-04-29T05:09:13.799Z,756
2017-04-29T05:10:24.017Z,848
2017-04-29T05:11:33.694Z,984
2017-04-29T05:12:43.955Z,1184
2017-04-29T05:13:53.880Z,1904
2017-04-29T05:15:04.108Z,1852
2017-04-29T05:16:13.450Z,1964
2017-04-29T05:17:23.781Z,4548
2017-04-29T05:18:33.700Z,2700
2017-04-29T05:19:43.322Z,2352
2017-04-29T05:20:53.549Z,2456
2017-04-29T05:22:02.853Z,2424
2017-04-29T05:23:13.020Z,2860
2017-04-29T05:24:23.254Z,2532
2017-04-29T05:25:32.860Z,2684
2017-04-29T05:26:42.453Z,3436
2017-04-29T05:27:52.683Z,10300
2017-04-29T05:29:02.752Z,5220
2017-04-29T05:30:12.664Z,6916
2017-04-29T05:31:22.584Z,7260
2017-04-29T05:32:32.218Z,7428
2017-04-29T05:33:42.442Z,8816
2017-04-29T05:34:52.164Z,13716
2017-04-29T05:36:02.096Z,15616
2017-04-29T05:37:12.328Z,17888
2017-04-29T05:38:22.342Z,2572
2017-04-29T05:39:31.965Z,2460
2017-04-29T05:40:42.227Z,2500
2017-04-29T05:41:52.440Z,2580
2017-04-29T05:43:02.365Z,21504
2017-04-29T05:44:11.964Z,22656
2017-04-29T05:45:21.874Z,21408
2017-04-29T05:46:31.942Z,24320
2017-04-29T05:47:42.162Z,25152
2017-04-29T05:48:52.415Z,24096
2017-04-29T05:50:02.638Z,24800
2017-04-29T05:51:12.557Z,26336
2017-04-29T05:52:22.416Z,26592
2017-04-29T05:53:32.646Z,23296
2017-04-29T05:54:42.563Z,24576
2017-04-29T05:55:52.489Z,25504
2017-04-29T05:57:02.709Z,25568
2017-04-29T05:58:13.181Z,25248
2017-04-29T05:59:23.093Z,25280
2017-04-29T06:00:33.034Z,25536
2017-04-29T06:01:42.955Z,25344
2017-04-29T06:02:53.186Z,26368
2017-04-29T06:04:03.365Z,25152
2017-04-29T06:05:13.306Z,24992
2017-04-29T06:06:23.530Z,22656
2017-04-29T06:07:33.159Z,24288
2017-04-29T06:08:42.462Z,25472
2017-04-29T06:09:52.847Z,25760
2017-04-29T06:11:03.074Z,26528
2017-04-29T06:12:13.318Z,18624
2017-04-29T06:13:22.653Z,6112
2017-04-29T06:14:32.642Z,5052
2017-04-29T06:15:42.529Z,5244
2017-04-29T06:16:52.454Z,5080
2017-04-29T06:18:02.676Z,5208
2017-04-29T06:19:12.923Z,5416
2017-04-29T06:20:22.869Z,5696
2017-04-29T06:21:32.944Z,5732
2017-04-29T06:22:42.610Z,5436
2017-04-29T06:23:52.532Z,4936
2017-04-29T06:25:02.788Z,4584
2017-04-29T06:26:12.430Z,4556
2017-04-29T06:27:22.897Z,4416
2017-04-29T06:28:32.814Z,4460
2017-04-29T06:29:42.738Z,4344
2017-04-29T06:30:52.994Z,4180
2017-04-29T06:32:02.922Z,4456
2017-04-29T06:33:12.408Z,4544
2017-04-29T06:34:22.630Z,5320
2017-04-29T06:35:32.547Z,6000
2017-04-29T06:36:42.168Z,6100
2017-04-29T06:37:52.089Z,5440
2017-04-29T06:39:02.351Z,5028
2017-04-29T06:40:12.263Z,4544
2017-04-29T06:41:22.478Z,4196
2017-04-29T06:42:32.078Z,3744
2017-04-29T06:43:41.696Z,3668
2017-04-29T06:44:51.663Z,3784
2017-04-29T06:46:01.922Z,3712
2017-04-29T06:47:11.537Z,3796
2017-04-29T06:48:21.162Z,4156
2017-04-29T06:49:31.390Z,4392
2017-04-29T06:50:41.139Z,4408
2017-04-29T06:51:51.364Z,4512
2017-04-29T06:53:01.586Z,4232
2017-04-29T06:54:11.208Z,4204
2017-04-29T06:55:21.454Z,4012
2017-04-29T06:56:31.631Z,3848
2017-04-29T06:57:41.569Z,3448
2017-04-29T06:58:51.530Z,3696
2017-04-29T07:00:01.765Z,3160
2017-04-29T07:01:11.675Z,3176
2017-04-29T07:02:21.830Z,3468
2017-04-29T07:03:31.443Z,3776
2017-04-29T07:04:41.079Z,3808
2017-04-29T07:05:50.703Z,3940
2017-04-29T07:07:00.616Z,4148
2017-04-29T07:08:10.574Z,3804
2017-04-29T07:09:20.191Z,3612
2017-04-29T07:10:29.516Z,3536
2017-04-29T07:11:39.457Z,3332
2017-04-29T07:12:49.060Z,3128
2017-04-29T07:13:59.589Z,3828
2017-04-29T07:15:09.498Z,4504
2017-04-29T07:16:19.422Z,4364
2017-04-29T07:17:29.344Z,4812
2017-04-29T07:18:38.951Z,5196
2017-04-29T07:19:49.159Z,9292
2017-04-29T07:20:58.762Z,15840
2017-04-29T07:22:08.691Z,3888
2017-04-29T07:23:18.308Z,27200
2017-04-29T07:24:28.263Z,1344
2017-04-29T07:25:38.796Z,1460
2017-04-29T07:26:48.727Z,1536
2017-04-29T07:27:58.681Z,1644
2017-04-29T07:29:08.000Z,2128
2017-04-29T07:30:17.298Z,3136
2017-04-29T07:31:27.525Z,41376
2017-04-29T07:32:37.440Z,48544
2017-04-29T07:33:47.349Z,22528
2017-04-29T07:34:57.318Z,43296
2017-04-29T07:36:07.238Z,41248
2017-04-29T07:37:17.757Z,39392
2017-04-29T07:38:27.367Z,41280
2017-04-29T07:39:37.281Z,45760
2017-04-29T07:40:47.501Z,52416
2017-04-29T07:41:57.726Z,50240
2017-04-29T07:43:08.075Z,47552
2017-04-29T07:44:17.397Z,46912
2017-04-29T07:45:28.001Z,48992
2017-04-29T07:46:37.920Z,50880
2017-04-29T07:47:48.153Z,44256
2017-04-29T07:48:58.178Z,35328
2017-04-29T07:50:07.788Z,31456
2017-04-29T07:51:17.709Z,33568
2017-04-29T07:52:27.626Z,35840
2017-04-29T07:53:37.249Z,38432
2017-04-29T07:54:47.522Z,53824
2017-04-29T07:55:57.439Z,50880
2017-04-29T07:57:07.666Z,34656
2017-04-29T07:58:17.316Z,23840
2017-04-29T07:59:27.240Z,17600
2017-04-29T08:00:36.914Z,11304
2017-04-29T08:01:46.538Z,4692
2017-04-29T08:02:56.154Z,2684
2017-04-29T08:04:06.068Z,2036
2017-04-29T08:05:15.075Z,1808
2017-04-29T08:06:25.565Z,1800
2017-04-29T08:07:34.877Z,2204
2017-04-29T08:08:44.814Z,1752
2017-04-29T08:09:54.135Z,1692
2017-04-29T08:11:03.745Z,1948
2017-04-29T08:12:13.783Z,2024
2017-04-29T08:13:24.027Z,2296
2017-04-29T08:14:33.985Z,14408
2017-04-29T08:15:43.984Z,4640
2017-04-29T08:16:53.306Z,5420
2017-04-29T08:18:03.479Z,2728
2017-04-29T08:19:13.090Z,3588
2017-04-29T08:20:22.998Z,23456
2017-04-29T08:21:32.620Z,15896
2017-04-29T08:22:42.533Z,4856
2017-04-29T08:23:52.563Z,3144
2017-04-29T08:25:02.799Z,2800
2017-04-29T08:26:12.716Z,2736
2017-04-29T08:27:22.323Z,2968
2017-04-29T08:28:32.559Z,3136
2017-04-29T08:29:42.634Z,3080
2017-04-29T08:30:51.948Z,3004
2017-04-29T08:32:02.169Z,2884
2017-04-29T08:33:11.770Z,2644
2017-04-29T08:34:21.398Z,2540
2017-04-29T08:35:31.318Z,2556
2017-04-29T08:36:41.542Z,2444
2017-04-29T08:37:51.795Z,2288
2017-04-29T08:39:01.748Z,2304
2017-04-29T08:40:12.002Z,2360
2017-04-29T08:41:22.516Z,2668
2017-04-29T08:42:32.430Z,3928
2017-04-29T08:43:41.443Z,6604
2017-04-29T08:44:51.377Z,6536
2017-04-29T08:46:01.001Z,5564
2017-04-29T08:47:11.223Z,3980
2017-04-29T08:48:20.850Z,3036
2017-04-29T08:49:30.456Z,2980
2017-04-29T08:50:40.366Z,3768
2017-04-29T08:51:50.293Z,3412
2017-04-29T08:53:00.261Z,3376
2017-04-29T08:54:09.876Z,3280
2017-04-29T08:55:19.818Z,3004
2017-04-29T08:56:29.772Z,2752
2017-04-29T08:57:39.693Z,2584
2017-04-29T08:58:49.736Z,2504
2017-04-29T08:59:59.655Z,2456
2017-04-29T09:01:09.575Z,2516
2017-04-29T09:02:19.836Z,2692
2017-04-29T09:03:29.746Z,2892
2017-04-29T09:04:39.814Z,3184
2017-04-29T09:05:49.456Z,3420
2017-04-29T09:07:00.089Z,3556
2017-04-29T09:08:09.412Z,3560
2017-04-29T09:09:18.726Z,3832
2017-04-29T09:10:28.626Z,3880
2017-04-29T09:11:38.539Z,4032
2017-04-29T09:12:48.769Z,3820
2017-04-29T09:13:58.707Z,3792
2017-04-29T09:15:08.636Z,3804
2017-04-29T09:16:18.812Z,3808
2017-04-29T09:17:28.745Z,3652
2017-04-29T09:18:38.052Z,3376
2017-04-29T09:19:47.984Z,2996
2017-04-29T09:20:58.203Z,2572
2017-04-29T09:22:07.869Z,2260
2017-04-29T09:23:18.093Z,2060
2017-04-29T09:24:28.043Z,1948
2017-04-29T09:25:37.364Z,1912
2017-04-29T09:26:47.310Z,1916
2017-04-29T09:27:57.791Z,1872
2017-04-29T09:29:07.716Z,1988
2017-04-29T09:30:17.338Z,2004
2017-04-29T09:31:27.567Z,1988
2017-04-29T09:32:37.189Z,2156
2017-04-29T09:33:46.965Z,2216
2017-04-29T09:34:56.899Z,2304
2017-04-29T09:36:06.514Z,2276
2017-04-29T09:37:16.737Z,2384
2017-04-29T09:38:26.044Z,2504
2017-04-29T09:39:36.212Z,2544
2017-04-29T09:40:46.434Z,2524
2017-04-29T09:41:56.655Z,2520
2017-04-29T09:43:06.888Z,2536
2017-04-29T09:44:16.812Z,2644
2017-04-29T09:45:26.676Z,2732
2017-04-29T09:46:36.590Z,2840
2017-04-29T09:47:46.512Z,2972
2017-04-29T09:48:56.439Z,3144
2017-04-29T09:50:06.054Z,3140
2017-04-29T09:51:15.909Z,3008
2017-04-29T09:52:25.835Z,3052
2017-04-29T09:53:35.768Z,3184
2017-04-29T09:54:45.986Z,3096
2017-04-29T09:55:55.609Z,3108
2017-04-29T09:57:05.909Z,3380
2017-04-29T09:58:15.833Z,3532
2017-04-29T09:59:25.778Z,3636
2017-04-29T10:00:35.401Z,3744
2017-04-29T10:01:45.311Z,3324
2017-04-29T10:02:55.528Z,2992
2017-04-29T10:04:05.140Z,2860
2017-04-29T10:05:14.740Z,2788
2017-04-29T10:06:25.005Z,2760
2017-04-29T10:07:34.005Z,2780
2017-04-29T10:08:43.871Z,2728
2017-04-29T10:09:53.786Z,2632
2017-04-29T10:11:03.718Z,2620
2017-04-29T10:12:13.636Z,2604
2017-04-29T10:13:23.557Z,2548
2017-04-29T10:14:33.833Z,2468
2017-04-29T10:15:43.440Z,2468
2017-04-29T10:16:53.055Z,2512
2017-04-29T10:18:03.646Z,2560
2017-04-29T10:19:13.573Z,2696
2017-04-29T10:20:24.092Z,2908
2017-04-29T10:21:34.323Z,2960
2017-04-29T10:22:43.956Z,3056
2017-04-29T10:23:54.222Z,3024
2017-04-29T10:25:04.450Z,2896
2017-04-29T10:26:14.660Z,2840
2017-04-29T10:27:24.635Z,2772
2017-04-29T10:28:34.571Z,2788
2017-04-29T10:29:43.868Z,2668
2017-04-29T10:30:54.084Z,2596
2017-04-29T10:32:04.564Z,2444
2017-04-29T10:33:14.470Z,2232
2017-04-29T10:34:24.699Z,2172
2017-04-29T10:35:34.626Z,2108
2017-04-29T10:36:44.848Z,2084
2017-04-29T10:37:55.220Z,2084
2017-04-29T10:39:05.444Z,1988
2017-04-29T10:40:15.427Z,2016
2017-04-29T10:41:25.706Z,1852
2017-04-29T10:42:36.305Z,1800
2017-04-29T10:43:46.521Z,1820
2017-04-29T10:44:56.460Z,1940
2017-04-29T10:46:06.682Z,2080
2017-04-29T10:47:16.588Z,2424
2017-04-29T10:48:26.805Z,2640
2017-04-29T10:49:37.177Z,2728
2017-04-29T10:50:47.090Z,2960
2017-04-29T10:51:57.607Z,3196
2017-04-29T10:53:07.608Z,3196
2017-04-29T10:54:17.206Z,3276
2017-04-29T10:55:26.928Z,3348
2017-04-29T10:56:36.891Z,3392
2017-04-29T10:57:46.498Z,3236
2017-04-29T10:58:56.416Z,3204
2017-04-29T11:00:06.037Z,3060
2017-04-29T11:01:16.078Z,2916
2017-04-29T11:02:26.026Z,2820
2017-04-29T11:03:36.279Z,2812
2017-04-29T11:04:46.207Z,2732
2017-04-29T11:05:56.431Z,2740
2017-04-29T11:07:07.001Z,2764
2017-04-29T11:08:16.616Z,2832
2017-04-29T11:09:26.540Z,2860
2017-04-29T11:10:36.455Z,2908
2017-04-29T11:11:46.363Z,3048
2017-04-29T11:12:56.328Z,3256
2017-04-29T11:14:06.593Z,3384
2017-04-29T11:15:16.528Z,3444
2017-04-29T11:16:26.448Z,3416
2017-04-29T11:17:36.364Z,3332
2017-04-29T11:18:46.580Z,3248
2017-04-29T11:19:56.506Z,3180
2017-04-29T11:21:06.426Z,3120
2017-04-29T11:22:16.651Z,2888
2017-04-29T11:23:26.600Z,2776
2017-04-29T11:24:36.783Z,2604
2017-04-29T11:25:47.071Z,2532
2017-04-29T11:26:57.020Z,2468
2017-04-29T11:28:06.667Z,2460
2017-04-29T11:29:16.655Z,2404
2017-04-29T11:30:26.855Z,2484
2017-04-29T11:31:36.454Z,2456
2017-04-29T11:32:46.676Z,2364
2017-04-29T11:33:56.298Z,2352
2017-04-29T11:35:06.527Z,2424
2017-04-29T11:36:16.689Z,2556
2017-04-29T11:37:26.298Z,2508
2017-04-29T11:38:36.515Z,2548
2017-04-29T11:39:45.816Z,2680
2017-04-29T11:40:56.028Z,2788
2017-04-29T11:42:06.200Z,2844
2017-04-29T11:43:16.119Z,2816
2017-04-29T11:44:25.742Z,2720
2017-04-29T11:45:35.660Z,2464
2017-04-29T11:46:45.637Z,2292
2017-04-29T11:47:55.556Z,2224
2017-04-29T11:49:05.167Z,2232
2017-04-29T11:50:14.780Z,2260
2017-04-29T11:51:25.010Z,2352
2017-04-29T11:52:35.238Z,2264
2017-04-29T11:53:45.623Z,2152
2017-04-29T11:54:55.533Z,2136
2017-04-29T11:56:05.765Z,2040
2017-04-29T11:57:15.677Z,1960
2017-04-29T11:58:24.999Z,1932
2017-04-29T11:59:34.765Z,1864
2017-04-29T12:00:44.991Z,1952
2017-04-29T12:01:54.608Z,1712
2017-04-29T12:03:04.405Z,1596
2017-04-29T12:04:14.703Z,1572
2017-04-29T12:05:25.205Z,1536
2017-04-29T12:06:35.240Z,1560
2017-04-29T12:07:45.477Z,1512
2017-04-29T12:08:55.505Z,1452
2017-04-29T12:10:05.276Z,1420
2017-04-29T12:11:15.198Z,1372
2017-04-29T12:12:25.149Z,1320
2017-04-29T12:13:35.080Z,1320
2017-04-29T12:14:45.334Z,1344
2017-04-29T12:15:55.613Z,1388
2017-04-29T12:17:05.385Z,1444
2017-04-29T12:18:15.362Z,1560
2017-04-29T12:19:25.942Z,1660
2017-04-29T12:20:35.943Z,1832
2017-04-29T12:21:45.614Z,2092
2017-04-29T12:22:55.662Z,2008
2017-04-29T12:24:05.913Z,2096
2017-04-29T12:25:15.838Z,2160
2017-04-29T12:26:25.451Z,2144
2017-04-29T12:27:35.687Z,2032
2017-04-29T12:28:45.911Z,1988
2017-04-29T12:29:56.151Z,1936
2017-04-29T12:31:06.082Z,1888
2017-04-29T12:32:16.347Z,1936
2017-04-29T12:33:26.305Z,2024
2017-04-29T12:34:36.527Z,2052
2017-04-29T12:35:46.748Z,2088
2017-04-29T12:36:56.971Z,2108
2017-04-29T12:38:06.878Z,2036
2017-04-29T12:39:16.521Z,2004
2017-04-29T12:40:26.705Z,1820
2017-04-29T12:41:36.934Z,2016
2017-04-29T12:42:46.559Z,1928
2017-04-29T12:43:56.476Z,1912
2017-04-29T12:45:06.453Z,1968
2017-04-29T12:46:17.010Z,1944
2017-04-29T12:47:26.946Z,2008
2017-04-29T12:48:36.863Z,2004
2017-04-29T12:49:47.094Z,1984
2017-04-29T12:50:57.318Z,1856
2017-04-29T12:52:07.378Z,1724
2017-04-29T12:53:17.002Z,1800
2017-04-29T12:54:26.937Z,1708
2017-04-29T12:55:36.564Z,1680
2017-04-29T12:56:46.797Z,1612
2017-04-29T12:57:56.879Z,1568
2017-04-29T12:59:07.102Z,1588
2017-04-29T13:00:17.017Z,1564
2017-04-29T13:01:26.931Z,1504
2017-04-29T13:02:36.531Z,1384
2017-04-29T13:03:46.724Z,1316
2017-04-29T13:04:56.648Z,1444
2017-04-29T13:06:06.577Z,1428
2017-04-29T13:07:15.882Z,1436
2017-04-29T13:08:25.492Z,1364
2017-04-29T13:09:36.022Z,1324
2017-04-29T13:10:45.636Z,1420
2017-04-29T13:11:55.857Z,1428
2017-04-29T13:13:06.087Z,1412
2017-04-29T13:14:15.397Z,1392
2017-04-29T13:15:25.358Z,1464
2017-04-29T13:16:34.962Z,1324
2017-04-29T13:17:45.214Z,1328
2017-04-29T13:18:55.439Z,1348
2017-04-29T13:20:05.668Z,1352
2017-04-29T13:21:16.117Z,1328
2017-04-29T13:22:26.030Z,1248
2017-04-29T13:23:35.637Z,1184
2017-04-29T13:24:45.556Z,1144
2017-04-29T13:25:55.785Z,1168
2017-04-29T13:27:05.354Z,1184
2017-04-29T13:28:14.961Z,1208
2017-04-29T13:29:25.202Z,1196
2017-04-29T13:30:34.833Z,1232
2017-04-29T13:31:44.770Z,1228
2017-04-29T13:32:54.829Z,1228
2017-04-29T13:34:04.468Z,1220
2017-04-29T13:35:14.382Z,1232
2017-04-29T13:36:24.319Z,1236
2017-04-29T13:37:34.538Z,1248
2017-04-29T13:38:44.712Z,1260
2017-04-29T13:39:54.657Z,1264
2017-04-29T13:41:04.272Z,1236
2017-04-29T13:42:13.601Z,1228
2017-04-29T13:43:23.529Z,1208
2017-04-29T13:44:33.616Z,1188
2017-04-29T13:45:43.547Z,1156
2017-04-29T13:46:53.482Z,1128
2017-04-29T13:48:03.746Z,1104
2017-04-29T13:49:13.382Z,1096
2017-04-29T13:50:23.560Z,1112
2017-04-29T13:51:33.800Z,1128
2017-04-29T13:52:43.776Z,1132
2017-04-29T13:53:54.040Z,1124
2017-04-29T13:55:04.349Z,1136
2017-04-29T13:56:13.958Z,1136
2017-04-29T13:57:23.898Z,1132
2017-04-29T13:58:33.550Z,1144
2017-04-29T13:59:43.168Z,1136
2017-04-29T14:00:53.397Z,1128
2017-04-29T14:02:03.470Z,1128
2017-04-29T14:03:13.713Z,1128
2017-04-29T14:04:23.647Z,1136
2017-04-29T14:05:33.880Z,1124
2017-04-29T14:06:43.485Z,1116
2017-04-29T14:07:53.831Z,1108
2017-04-29T14:09:04.082Z,1112
2017-04-29T14:10:14.339Z,1108
2017-04-29T14:11:23.678Z,1084
2017-04-29T14:12:32.990Z,1052
2017-04-29T14:13:43.241Z,1092
2017-04-29T14:14:52.893Z,1084
2017-04-29T14:16:02.211Z,1088
2017-04-29T14:17:11.848Z,1088
2017-04-29T14:18:21.473Z,1084
2017-04-29T14:19:31.495Z,1080
2017-04-29T14:20:41.720Z,1072
2017-04-29T14:21:51.669Z,1060
2017-04-29T14:23:01.598Z,984
2017-04-29T14:24:11.537Z,988
2017-04-29T14:25:21.496Z,1044
2017-04-29T14:26:31.724Z,976
2017-04-29T14:27:41.652Z,1060
2017-04-29T14:28:51.878Z,1068
2017-04-29T14:30:01.818Z,1068
2017-04-29T14:31:12.084Z,1060
2017-04-29T14:32:22.307Z,1048
2017-04-29T14:33:32.534Z,1028
2017-04-29T14:34:42.766Z,1012
2017-04-29T14:35:52.675Z,1040
2017-04-29T14:37:03.044Z,760
2017-04-29T14:38:12.706Z,796
2017-04-29T14:39:22.318Z,740
2017-04-29T14:40:32.549Z,744
2017-04-29T14:41:42.466Z,740
2017-04-29T14:42:52.799Z,936
2017-04-29T14:44:02.711Z,748
2017-04-29T14:45:12.616Z,732
2017-04-29T14:46:22.239Z,720
2017-04-29T14:47:32.466Z,712
2017-04-29T14:48:42.836Z,708
2017-04-29T14:49:53.068Z,708
2017-04-29T14:51:02.983Z,708
2017-04-29T14:52:12.896Z,716
2017-04-29T14:53:21.915Z,720
2017-04-29T14:54:31.897Z,720
2017-04-29T14:55:42.120Z,728
2017-04-29T14:56:52.047Z,728
2017-04-29T14:58:01.663Z,724
2017-04-29T14:59:11.279Z,808
2017-04-29T15:00:21.455Z,732
2017-04-29T15:01:31.073Z,708
2017-04-29T15:02:40.996Z,712
2017-04-29T15:03:50.922Z,708
2017-04-29T15:05:00.859Z,708
2017-04-29T15:06:11.436Z,716
2017-04-29T15:07:21.662Z,712
2017-04-29T15:08:31.582Z,720
2017-04-29T15:09:41.506Z,788
2017-04-29T15:10:51.128Z,936
2017-04-29T15:12:01.186Z,960
2017-04-29T15:13:11.410Z,872
2017-04-29T15:14:21.670Z,768
2017-04-29T15:15:31.584Z,840
2017-04-29T15:16:41.506Z,952
2017-04-29T15:17:51.974Z,956
2017-04-29T15:19:01.908Z,956
2017-04-29T15:20:11.534Z,956
2017-04-29T15:21:21.448Z,956
2017-04-29T15:22:31.057Z,952
2017-04-29T15:23:41.326Z,952
2017-04-29T15:24:50.624Z,956
2017-04-29T15:26:00.547Z,956
2017-04-29T15:27:10.491Z,952
2017-04-29T15:28:20.412Z,952
2017-04-29T15:29:30.494Z,952
2017-04-29T15:30:40.135Z,952
2017-04-29T15:31:50.143Z,948
2017-04-29T15:33:00.155Z,944
2017-04-29T15:34:10.069Z,944
2017-04-29T15:35:20.130Z,936
2017-04-29T15:36:29.788Z,940
2017-04-29T15:37:39.701Z,940
2017-04-29T15:38:49.928Z,940
2017-04-29T15:39:59.536Z,936
2017-04-29T15:41:10.011Z,932
2017-04-29T15:42:19.927Z,932
2017-04-29T15:43:29.838Z,932
2017-04-29T15:44:39.461Z,932
2017-04-29T15:45:49.073Z,928
2017-04-29T15:46:59.099Z,932
2017-04-29T15:48:08.707Z,928
2017-04-29T15:49:18.933Z,928
2017-04-29T15:50:28.238Z,928
2017-04-29T15:51:37.855Z,924
2017-04-29T15:52:48.030Z,924
2017-04-29T15:53:57.646Z,924
2017-04-29T15:55:07.567Z,924
2017-04-29T15:56:17.797Z,924
2017-04-29T15:57:27.713Z,920
2017-04-29T15:58:37.745Z,916